ホバート の空港の天気 - METARとTAF

ホバート国際空港 ( YMHB / HBA ) - オーストラリア タスマニア州、Cambridge
飛行場実況気象(Metar)
観測時間04/27 02:30 AEST (04/26 16:30 UTC)
風向・風速西北西 4m/s
視程10km以上
天気現象
少しの雲 雲底高度 1220m
全天の4割程度の雲 雲底高度 1680m
気温8℃
湿度57%
気圧1013hPa
METARYMHB 261630Z 30007KT 9999 FEW040 SCT055 08/00 Q1013 RF00.0/000.0
過去の天気等 Google飛行場航空写真 Wunderground天気予報

過去48時間のMETAR

飛行場予報(TAF)
発表時間: 4/26 23:49 AEST (4/26 13:49 UTC)
予報対象時間: 27日0時 AEST ~ 27日22時 AEST
風向・風速西北西 5m/s
視程10km以上
全天の4割程度の雲 雲底高度 1070m
27日1時 AEST から
風向・風速西北西 6m/s
視程10km以上
全天の8割程度の雲 雲底高度 910m
27日10時 AEST から
風向・風速西北西 9m/s 瞬間風速 15m/s
視程10km以上
全天の4割程度の雲 雲底高度 760m
全天の8割程度の雲 雲底高度 1070m
TAF AMD YMHB 261349Z 2614/2712 29010KT 9999 SCT035
FM261500 30012KT 9999 BKN030
FM270000 29018G30KT 9999 SCT025 BKN035